CheckWX is a tool to help pilots better visualize weather data.  It is not intended as a substitute for an official pre-flight weather briefing.

10:53:01 UTC

KTYR METAR
Tyler Pounds Regional Airport
Tyler, Texas, USA
Current

60 mins ago

KTYR 240953Z AUTO 21012G20KT 10SM OVC005 16/14 A2977 RMK AO2 SLP078 T01610144
Observed
Feb-24 @ 09:53 UTC
Wind
  • 210° at 12 KTS
  • Gusting to 20 KTS
Visibility
10 SM
Flight Rules
IFR
Cloud Levels
  • Overcast at 500' AGL
Temperature
16°C / 61°F
Dewpoint
14°C / 57°F
Humidity
88%
Altimeter
29.77" Hg
Pressure
1008.12 hPa
Previous

1 hour ago

KTYR 240926Z AUTO 20012KT 10SM OVC005 16/14 A2978 RMK AO2 T01610144
Observed
Feb-24 @ 09:26 UTC
Wind
  • 200° at 12 KTS
Visibility
10 SM
Flight Rules
IFR
Cloud Levels
  • Overcast at 500' AGL
Temperature
16°C / 61°F
Dewpoint
14°C / 57°F
Humidity
88%
Altimeter
29.78" Hg
Pressure
1008.42 hPa
Previous

2 hours ago

KTYR 240853Z AUTO 19014KT 10SM OVC004 16/14 A2980 RMK AO2 SLP089 60000 T01560144 56016
Observed
Feb-24 @ 08:53 UTC
Wind
  • 190° at 14 KTS
Visibility
10 SM
Flight Rules
LIFR
Cloud Levels
  • Overcast at 400' AGL
Temperature
16°C / 61°F
Dewpoint
14°C / 57°F
Humidity
88%
Altimeter
29.8" Hg
Pressure
1009.12 hPa